sensor_id;sensor_type;location;lat;lon;timestamp;temperature;humidity
55365;DHT22;41245;45.384;20.390;2023-05-10T00:02:06;282.40;2278.40
55365;DHT22;41245;45.384;20.390;2023-05-10T00:04:32;282.40;2278.40
55365;DHT22;41245;45.384;20.390;2023-05-10T00:06:58;282.20;2278.40
55365;DHT22;41245;45.384;20.390;2023-05-10T00:09:24;282.20;2278.40
55365;DHT22;41245;45.384;20.390;2023-05-10T00:11:49;282.20;2278.40
55365;DHT22;41245;45.384;20.390;2023-05-10T00:14:15;282.20;2278.40
55365;DHT22;41245;45.384;20.390;2023-05-10T00:16:41;282.20;2278.40
55365;DHT22;41245;45.384;20.390;2023-05-10T00:19:07;282.20;2278.40
55365;DHT22;41245;45.384;20.390;2023-05-10T00:21:33;282.30;2278.40
55365;DHT22;41245;45.384;20.390;2023-05-10T00:23:59;282.20;2278.40
55365;DHT22;41245;45.384;20.390;2023-05-10T00:26:25;281.90;2278.40
55365;DHT22;41245;45.384;20.390;2023-05-10T00:28:51;282.10;2201.60
55365;DHT22;41245;45.384;20.390;2023-05-10T00:31:17;282.10;2201.60
55365;DHT22;41245;45.384;20.390;2023-05-10T00:33:42;282.10;2176.00
55365;DHT22;41245;45.384;20.390;2023-05-10T00:36:08;282.10;2124.80
55365;DHT22;41245;45.384;20.390;2023-05-10T00:38:34;282.10;2150.40
55365;DHT22;41245;45.384;20.390;2023-05-10T00:41:00;282.10;2048.00
55365;DHT22;41245;45.384;20.390;2023-05-10T00:43:26;282.10;2048.00
55365;DHT22;41245;45.384;20.390;2023-05-10T00:45:52;282.10;2073.60
55365;DHT22;41245;45.384;20.390;2023-05-10T00:48:18;282.10;2176.00
55365;DHT22;41245;45.384;20.390;2023-05-10T00:50:44;282.00;2099.20
55365;DHT22;41245;45.384;20.390;2023-05-10T00:53:10;282.10;2227.20
55365;DHT22;41245;45.384;20.390;2023-05-10T00:55:36;282.10;2278.40
55365;DHT22;41245;45.384;20.390;2023-05-10T00:58:03;282.10;2099.20
55365;DHT22;41245;45.384;20.390;2023-05-10T01:00:29;282.10;2201.60
55365;DHT22;41245;45.384;20.390;2023-05-10T01:02:55;282.10;2176.00
55365;DHT22;41245;45.384;20.390;2023-05-10T01:05:21;282.10;2099.20
55365;DHT22;41245;45.384;20.390;2023-05-10T01:07:46;282.10;2201.60
55365;DHT22;41245;45.384;20.390;2023-05-10T01:10:13;282.10;2022.40
55365;DHT22;41245;45.384;20.390;2023-05-10T01:12:41;282.00;1894.40
55365;DHT22;41245;45.384;20.390;2023-05-10T01:15:08;282.00;1894.40
55365;DHT22;41245;45.384;20.390;2023-05-10T01:17:39;281.90;1894.40
55365;DHT22;41245;45.384;20.390;2023-05-10T01:20:07;282.00;2022.40
55365;DHT22;41245;45.384;20.390;2023-05-10T01:31:27;281.60;1843.20
55365;DHT22;41245;45.384;20.390;2023-05-10T01:34:02;256.90;1740.80
55365;DHT22;41245;45.384;20.390;2023-05-10T01:36:32;256.90;1664.00
55365;DHT22;41245;45.384;20.390;2023-05-10T01:39:11;256.70;1459.20
55365;DHT22;41245;45.384;20.390;2023-05-10T01:42:09;256.60;1408.00
55365;DHT22;41245;45.384;20.390;2023-05-10T01:47:10;256.50;1331.20
55365;DHT22;41245;45.384;20.390;2023-05-10T01:49:43;256.40;1228.80
55365;DHT22;41245;45.384;20.390;2023-05-10T01:52:12;256.40;1228.80
55365;DHT22;41245;45.384;20.390;2023-05-10T01:54:42;256.30;1075.20
55365;DHT22;41245;45.384;20.390;2023-05-10T01:57:11;256.30;1024.00
55365;DHT22;41245;45.384;20.390;2023-05-10T01:59:40;256.40;1024.00
55365;DHT22;41245;45.384;20.390;2023-05-10T02:02:09;256.30;1049.60
55365;DHT22;41245;45.384;20.390;2023-05-10T02:04:38;256.30;1100.80
55365;DHT22;41245;45.384;20.390;2023-05-10T02:07:05;256.30;921.60
55365;DHT22;41245;45.384;20.390;2023-05-10T02:09:33;256.30;1024.00
55365;DHT22;41245;45.384;20.390;2023-05-10T02:12:00;256.30;1049.60
55365;DHT22;41245;45.384;20.390;2023-05-10T02:14:30;256.30;972.80
55365;DHT22;41245;45.384;20.390;2023-05-10T02:16:58;256.30;921.60
55365;DHT22;41245;45.384;20.390;2023-05-10T02:19:25;256.30;1024.00
55365;DHT22;41245;45.384;20.390;2023-05-10T02:21:55;256.40;1049.60
55365;DHT22;41245;45.384;20.390;2023-05-10T02:24:21;256.50;1177.60
55365;DHT22;41245;45.384;20.390;2023-05-10T02:26:49;256.50;1100.80
55365;DHT22;41245;45.384;20.390;2023-05-10T02:29:17;256.40;947.20
55365;DHT22;41245;45.384;20.390;2023-05-10T02:31:44;256.30;819.20
55365;DHT22;41245;45.384;20.390;2023-05-10T02:34:11;256.40;844.80
55365;DHT22;41245;45.384;20.390;2023-05-10T02:36:38;256.40;819.20
55365;DHT22;41245;45.384;20.390;2023-05-10T02:39:05;256.40;844.80
55365;DHT22;41245;45.384;20.390;2023-05-10T02:41:35;256.30;742.40
55365;DHT22;41245;45.384;20.390;2023-05-10T02:44:02;256.40;819.20
55365;DHT22;41245;45.384;20.390;2023-05-10T02:46:29;256.40;793.60
55365;DHT22;41245;45.384;20.390;2023-05-10T02:48:55;256.40;896.00
55365;DHT22;41245;45.384;20.390;2023-05-10T02:51:25;256.40;793.60
55365;DHT22;41245;45.384;20.390;2023-05-10T02:53:53;256.40;998.40
55365;DHT22;41245;45.384;20.390;2023-05-10T02:56:31;256.40;1177.60
55365;DHT22;41245;45.384;20.390;2023-05-10T02:58:58;256.50;1100.80
55365;DHT22;41245;45.384;20.390;2023-05-10T03:01:24;256.40;998.40
55365;DHT22;41245;45.384;20.390;2023-05-10T03:03:49;256.40;998.40
55365;DHT22;41245;45.384;20.390;2023-05-10T03:06:15;231.30;972.80
55365;DHT22;41245;45.384;20.390;2023-05-10T03:08:42;256.30;947.20
55365;DHT22;41245;45.384;20.390;2023-05-10T03:11:27;256.40;972.80
55365;DHT22;41245;45.384;20.390;2023-05-10T03:16:35;256.40;1126.40
55365;DHT22;41245;45.384;20.390;2023-05-10T03:19:51;256.40;1331.20
55365;DHT22;41245;45.384;20.390;2023-05-10T03:22:32;256.50;1024.00
55365;DHT22;41245;45.384;20.390;2023-05-10T03:25:00;256.50;998.40
55365;DHT22;41245;45.384;20.390;2023-05-10T03:27:28;256.60;1228.80
55365;DHT22;41245;45.384;20.390;2023-05-10T03:29:55;256.60;1203.20
55365;DHT22;41245;45.384;20.390;2023-05-10T03:32:22;256.70;1254.40
55365;DHT22;41245;45.384;20.390;2023-05-10T03:34:48;256.70;1254.40
55365;DHT22;41245;45.384;20.390;2023-05-10T03:37:14;256.80;1305.60
55365;DHT22;41245;45.384;20.390;2023-05-10T03:39:39;256.80;1331.20
55365;DHT22;41245;45.384;20.390;2023-05-10T03:42:05;256.80;1433.60
55365;DHT22;41245;45.384;20.390;2023-05-10T03:44:31;256.70;1382.40
55365;DHT22;41245;45.384;20.390;2023-05-10T03:46:59;256.80;1459.20
55365;DHT22;41245;45.384;20.390;2023-05-10T03:49:24;256.80;1561.60
55365;DHT22;41245;45.384;20.390;2023-05-10T03:51:50;256.80;1484.80
55365;DHT22;41245;45.384;20.390;2023-05-10T03:54:16;256.70;1331.20
55365;DHT22;41245;45.384;20.390;2023-05-10T03:56:41;256.80;1228.80
55365;DHT22;41245;45.384;20.390;2023-05-10T03:59:07;256.80;1382.40
55365;DHT22;41245;45.384;20.390;2023-05-10T04:01:34;281.60;1510.40
55365;DHT22;41245;45.384;20.390;2023-05-10T04:04:00;281.70;1510.40
55365;DHT22;41245;45.384;20.390;2023-05-10T04:06:26;281.70;1664.00
55365;DHT22;41245;45.384;20.390;2023-05-10T04:08:51;281.80;1664.00
55365;DHT22;41245;45.384;20.390;2023-05-10T04:11:17;282.10;2150.40
55365;DHT22;41245;45.384;20.390;2023-05-10T04:13:43;282.10;2150.40
55365;DHT22;41245;45.384;20.390;2023-05-10T04:16:09;282.20;2124.80
55365;DHT22;41245;45.384;20.390;2023-05-10T04:18:35;282.40;2278.40
55365;DHT22;41245;45.384;20.390;2023-05-10T04:21:00;282.50;2278.40
55365;DHT22;41245;45.384;20.390;2023-05-10T04:23:29;307.20;2304.00
55365;DHT22;41245;45.384;20.390;2023-05-10T04:26:01;307.20;2304.00
55365;DHT22;41245;45.384;20.390;2023-05-10T04:28:27;307.30;2304.00
55365;DHT22;41245;45.384;20.390;2023-05-10T04:30:53;307.40;2304.00
55365;DHT22;41245;45.384;20.390;2023-05-10T04:33:18;307.70;2304.00
55365;DHT22;41245;45.384;20.390;2023-05-10T04:35:44;307.80;2304.00
55365;DHT22;41245;45.384;20.390;2023-05-10T04:38:10;307.90;2304.00
55365;DHT22;41245;45.384;20.390;2023-05-10T04:40:36;308.10;2304.00
55365;DHT22;41245;45.384;20.390;2023-05-10T04:43:01;308.10;2304.00
55365;DHT22;41245;45.384;20.390;2023-05-10T04:45:27;332.80;2329.60
55365;DHT22;41245;45.384;20.390;2023-05-10T04:47:53;333.20;2329.60
55365;DHT22;41245;45.384;20.390;2023-05-10T04:50:18;358.70;2329.60
55365;DHT22;41245;45.384;20.390;2023-05-10T04:52:44;384.70;2329.60
55365;DHT22;41245;45.384;20.390;2023-05-10T04:55:10;435.40;2355.20
55365;DHT22;41245;45.384;20.390;2023-05-10T04:57:36;436.10;2355.20
55365;DHT22;41245;45.384;20.390;2023-05-10T05:00:01;461.20;2380.80
55365;DHT22;41245;45.384;20.390;2023-05-10T05:02:27;461.50;2380.80
55365;DHT22;41245;45.384;20.390;2023-05-10T05:04:55;486.50;2380.80
55365;DHT22;41245;45.384;20.390;2023-05-10T05:07:21;486.60;2380.80
55365;DHT22;41245;45.384;20.390;2023-05-10T05:09:46;486.70;2380.80
55365;DHT22;41245;45.384;20.390;2023-05-10T05:12:12;487.20;2380.80
55365;DHT22;41245;45.384;20.390;2023-05-10T05:14:39;512.40;2380.80
55365;DHT22;41245;45.384;20.390;2023-05-10T05:17:05;537.90;2022.40
55365;DHT22;41245;45.384;20.390;2023-05-10T05:19:31;537.90;2124.80
55365;DHT22;41245;45.384;20.390;2023-05-10T05:21:57;538.10;2124.80
55365;DHT22;41245;45.384;20.390;2023-05-10T05:24:22;538.50;2227.20
55365;DHT22;41245;45.384;20.390;2023-05-10T05:26:48;564.00;2432.00
55365;DHT22;41245;45.384;20.390;2023-05-10T05:29:14;589.00;2432.00
55365;DHT22;41245;45.384;20.390;2023-05-10T05:31:40;588.90;2432.00
55365;DHT22;41245;45.384;20.390;2023-05-10T05:34:05;589.10;2432.00
55365;DHT22;41245;45.384;20.390;2023-05-10T05:36:31;614.50;2432.00
55365;DHT22;41245;45.384;20.390;2023-05-10T05:38:57;589.30;2432.00
55365;DHT22;41245;45.384;20.390;2023-05-10T05:41:23;615.10;2432.00
55365;DHT22;41245;45.384;20.390;2023-05-10T05:43:51;640.20;2432.00
55365;DHT22;41245;45.384;20.390;2023-05-10T05:46:17;640.00;2432.00
55365;DHT22;41245;45.384;20.390;2023-05-10T05:48:42;640.10;2432.00
55365;DHT22;41245;45.384;20.390;2023-05-10T05:51:08;614.40;2432.00
55365;DHT22;41245;45.384;20.390;2023-05-10T05:53:34;640.90;2432.00
55365;DHT22;41245;45.384;20.390;2023-05-10T05:55:59;666.00;2432.00
55365;DHT22;41245;45.384;20.390;2023-05-10T05:58:25;717.20;2432.00
55365;DHT22;41245;45.384;20.390;2023-05-10T06:00:51;717.60;2432.00
55365;DHT22;41245;45.384;20.390;2023-05-10T06:03:17;666.00;2432.00
55365;DHT22;41245;45.384;20.390;2023-05-10T06:05:43;588.80;2432.00
55365;DHT22;41245;45.384;20.390;2023-05-10T06:08:09;538.20;2406.40
55365;DHT22;41245;45.384;20.390;2023-05-10T06:10:35;512.20;2201.60
55365;DHT22;41245;45.384;20.390;2023-05-10T06:13:01;487.00;2073.60
55365;DHT22;41245;45.384;20.390;2023-05-10T06:15:27;486.60;2380.80
55365;DHT22;41245;45.384;20.390;2023-05-10T06:17:53;461.70;2380.80
55365;DHT22;41245;45.384;20.390;2023-05-10T06:20:18;461.70;2380.80
55365;DHT22;41245;45.384;20.390;2023-05-10T06:22:44;461.60;2380.80
55365;DHT22;41245;45.384;20.390;2023-05-10T06:25:10;486.40;2380.80
55365;DHT22;41245;45.384;20.390;2023-05-10T06:27:36;461.60;2380.80
55365;DHT22;41245;45.384;20.390;2023-05-10T06:30:02;486.40;2380.80
55365;DHT22;41245;45.384;20.390;2023-05-10T06:32:28;461.50;2380.80
55365;DHT22;41245;45.384;20.390;2023-05-10T06:34:54;461.50;2380.80
55365;DHT22;41245;45.384;20.390;2023-05-10T06:37:20;461.70;2380.80
55365;DHT22;41245;45.384;20.390;2023-05-10T06:39:45;461.60;2380.80
55365;DHT22;41245;45.384;20.390;2023-05-10T06:42:11;461.70;2380.80
55365;DHT22;41245;45.384;20.390;2023-05-10T06:44:37;486.40;1996.80
55365;DHT22;41245;45.384;20.390;2023-05-10T06:47:03;461.70;2380.80
55365;DHT22;41245;45.384;20.390;2023-05-10T06:49:28;461.70;2380.80
55365;DHT22;41245;45.384;20.390;2023-05-10T06:51:55;461.60;2380.80
55365;DHT22;41245;45.384;20.390;2023-05-10T06:54:21;461.60;2380.80
55365;DHT22;41245;45.384;20.390;2023-05-10T06:56:47;461.70;2380.80
55365;DHT22;41245;45.384;20.390;2023-05-10T06:59:13;461.70;2380.80
55365;DHT22;41245;45.384;20.390;2023-05-10T07:01:39;486.40;2380.80
55365;DHT22;41245;45.384;20.390;2023-05-10T07:04:05;461.40;2380.80
55365;DHT22;41245;45.384;20.390;2023-05-10T07:06:32;486.40;2380.80
55365;DHT22;41245;45.384;20.390;2023-05-10T07:08:59;486.40;2380.80
55365;DHT22;41245;45.384;20.390;2023-05-10T07:11:24;486.40;2380.80
55365;DHT22;41245;45.384;20.390;2023-05-10T07:13:50;486.70;1996.80
55365;DHT22;41245;45.384;20.390;2023-05-10T07:16:16;487.10;2022.40
55365;DHT22;41245;45.384;20.390;2023-05-10T07:18:41;487.20;2048.00
55365;DHT22;41245;45.384;20.390;2023-05-10T07:21:07;487.30;2099.20
55365;DHT22;41245;45.384;20.390;2023-05-10T07:23:33;487.20;2022.40
55365;DHT22;41245;45.384;20.390;2023-05-10T07:25:59;487.30;2380.80
55365;DHT22;41245;45.384;20.390;2023-05-10T07:28:25;487.10;2022.40
55365;DHT22;41245;45.384;20.390;2023-05-10T07:30:51;487.00;2380.80
55365;DHT22;41245;45.384;20.390;2023-05-10T07:33:17;486.90;2380.80
55365;DHT22;41245;45.384;20.390;2023-05-10T07:35:42;486.70;2380.80
55365;DHT22;41245;45.384;20.390;2023-05-10T07:38:08;486.60;2380.80
55365;DHT22;41245;45.384;20.390;2023-05-10T07:40:36;486.70;2380.80
55365;DHT22;41245;45.384;20.390;2023-05-10T07:43:02;486.50;2380.80
55365;DHT22;41245;45.384;20.390;2023-05-10T07:45:28;486.70;2380.80
55365;DHT22;41245;45.384;20.390;2023-05-10T07:47:54;486.80;2022.40
55365;DHT22;41245;45.384;20.390;2023-05-10T07:50:19;486.90;2073.60
55365;DHT22;41245;45.384;20.390;2023-05-10T07:52:47;486.90;2099.20
55365;DHT22;41245;45.384;20.390;2023-05-10T07:55:13;487.00;2073.60
55365;DHT22;41245;45.384;20.390;2023-05-10T07:57:39;486.90;2099.20
55365;DHT22;41245;45.384;20.390;2023-05-10T08:00:08;512.00;2176.00
55365;DHT22;41245;45.384;20.390;2023-05-10T08:02:35;512.10;2278.40
55365;DHT22;41245;45.384;20.390;2023-05-10T08:05:01;512.20;2278.40
55365;DHT22;41245;45.384;20.390;2023-05-10T08:07:27;512.40;2304.00
55365;DHT22;41245;45.384;20.390;2023-05-10T08:09:53;512.60;2304.00
55365;DHT22;41245;45.384;20.390;2023-05-10T08:12:18;512.90;2380.80
55365;DHT22;41245;45.384;20.390;2023-05-10T08:14:44;512.90;2380.80
55365;DHT22;41245;45.384;20.390;2023-05-10T08:17:10;537.60;2406.40
55365;DHT22;41245;45.384;20.390;2023-05-10T08:19:35;537.60;2406.40
55365;DHT22;41245;45.384;20.390;2023-05-10T08:22:01;537.80;2406.40
55365;DHT22;41245;45.384;20.390;2023-05-10T08:24:27;537.90;2406.40
55365;DHT22;41245;45.384;20.390;2023-05-10T08:26:53;537.90;2406.40
55365;DHT22;41245;45.384;20.390;2023-05-10T08:29:18;538.00;2406.40
55365;DHT22;41245;45.384;20.390;2023-05-10T08:31:44;537.90;2406.40
55365;DHT22;41245;45.384;20.390;2023-05-10T08:34:10;538.10;2406.40
55365;DHT22;41245;45.384;20.390;2023-05-10T08:36:36;538.30;2406.40
55365;DHT22;41245;45.384;20.390;2023-05-10T08:39:02;538.30;2406.40
55365;DHT22;41245;45.384;20.390;2023-05-10T08:41:28;538.00;2406.40
55365;DHT22;41245;45.384;20.390;2023-05-10T08:43:55;537.80;2406.40
55365;DHT22;41245;45.384;20.390;2023-05-10T08:46:23;537.70;2406.40
55365;DHT22;41245;45.384;20.390;2023-05-10T08:48:50;537.60;2406.40
55365;DHT22;41245;45.384;20.390;2023-05-10T08:51:22;537.90;2406.40
55365;DHT22;41245;45.384;20.390;2023-05-10T08:53:52;537.90;2406.40
55365;DHT22;41245;45.384;20.390;2023-05-10T08:56:18;537.70;2406.40
55365;DHT22;41245;45.384;20.390;2023-05-10T08:58:44;512.80;2380.80
55365;DHT22;41245;45.384;20.390;2023-05-10T09:01:09;512.80;2380.80
55365;DHT22;41245;45.384;20.390;2023-05-10T09:03:38;537.80;2406.40
55365;DHT22;41245;45.384;20.390;2023-05-10T09:06:04;537.80;2406.40
55365;DHT22;41245;45.384;20.390;2023-05-10T09:08:30;537.80;2406.40
55365;DHT22;41245;45.384;20.390;2023-05-10T09:10:56;512.90;2380.80
55365;DHT22;41245;45.384;20.390;2023-05-10T09:13:23;512.80;2380.80
55365;DHT22;41245;45.384;20.390;2023-05-10T09:15:49;512.60;2380.80
55365;DHT22;41245;45.384;20.390;2023-05-10T09:18:16;512.70;2380.80
55365;DHT22;41245;45.384;20.390;2023-05-10T09:20:42;512.90;2380.80
55365;DHT22;41245;45.384;20.390;2023-05-10T09:23:08;512.90;2380.80
55365;DHT22;41245;45.384;20.390;2023-05-10T09:25:34;512.80;2380.80
55365;DHT22;41245;45.384;20.390;2023-05-10T09:28:00;537.60;2406.40
55365;DHT22;41245;45.384;20.390;2023-05-10T09:30:27;538.00;2406.40
55365;DHT22;41245;45.384;20.390;2023-05-10T09:32:54;538.20;2406.40
55365;DHT22;41245;45.384;20.390;2023-05-10T09:35:23;538.30;2406.40
55365;DHT22;41245;45.384;20.390;2023-05-10T09:37:52;538.20;2406.40
55365;DHT22;41245;45.384;20.390;2023-05-10T09:40:22;538.30;2406.40
55365;DHT22;41245;45.384;20.390;2023-05-10T09:42:56;538.50;2406.40
55365;DHT22;41245;45.384;20.390;2023-05-10T09:45:24;538.40;2406.40
55365;DHT22;41245;45.384;20.390;2023-05-10T09:47:50;538.50;2406.40
55365;DHT22;41245;45.384;20.390;2023-05-10T09:50:16;563.50;2432.00
55365;DHT22;41245;45.384;20.390;2023-05-10T09:55:24;538.40;2406.40
55365;DHT22;41245;45.384;20.390;2023-05-10T09:57:59;538.20;2406.40
55365;DHT22;41245;45.384;20.390;2023-05-10T10:00:26;538.20;2406.40
55365;DHT22;41245;45.384;20.390;2023-05-10T10:02:59;538.10;2406.40
55365;DHT22;41245;45.384;20.390;2023-05-10T10:05:44;538.00;2406.40
55365;DHT22;41245;45.384;20.390;2023-05-10T10:08:10;537.90;2406.40
55365;DHT22;41245;45.384;20.390;2023-05-10T10:10:37;537.80;2406.40
55365;DHT22;41245;45.384;20.390;2023-05-10T10:13:05;537.90;2406.40
55365;DHT22;41245;45.384;20.390;2023-05-10T10:15:33;538.10;2406.40
55365;DHT22;41245;45.384;20.390;2023-05-10T10:17:59;538.20;2406.40
55365;DHT22;41245;45.384;20.390;2023-05-10T10:20:26;538.30;2406.40
55365;DHT22;41245;45.384;20.390;2023-05-10T10:22:52;538.40;2406.40
55365;DHT22;41245;45.384;20.390;2023-05-10T10:25:19;538.50;2406.40
55365;DHT22;41245;45.384;20.390;2023-05-10T10:30:34;563.20;2432.00
55365;DHT22;41245;45.384;20.390;2023-05-10T10:35:49;563.30;2432.00
55365;DHT22;41245;45.384;20.390;2023-05-10T10:38:16;563.50;2432.00
55365;DHT22;41245;45.384;20.390;2023-05-10T10:40:42;563.50;2432.00
55365;DHT22;41245;45.384;20.390;2023-05-10T10:43:27;563.50;2432.00
55365;DHT22;41245;45.384;20.390;2023-05-10T10:46:12;563.30;2432.00
55365;DHT22;41245;45.384;20.390;2023-05-10T10:48:39;563.60;2432.00
55365;DHT22;41245;45.384;20.390;2023-05-10T10:51:05;563.60;2432.00
55365;DHT22;41245;45.384;20.390;2023-05-10T10:53:32;563.40;2432.00
55365;DHT22;41245;45.384;20.390;2023-05-10T10:56:12;563.40;2432.00
55365;DHT22;41245;45.384;20.390;2023-05-10T10:58:39;563.60;2432.00
55365;DHT22;41245;45.384;20.390;2023-05-10T11:01:18;563.80;2432.00
55365;DHT22;41245;45.384;20.390;2023-05-10T11:06:35;563.80;2432.00
55365;DHT22;41245;45.384;20.390;2023-05-10T11:09:11;589.00;2432.00
55365;DHT22;41245;45.384;20.390;2023-05-10T11:11:54;588.90;2432.00
55365;DHT22;41245;45.384;20.390;2023-05-10T11:14:23;589.00;2432.00
55365;DHT22;41245;45.384;20.390;2023-05-10T11:16:50;588.80;2432.00
55365;DHT22;41245;45.384;20.390;2023-05-10T11:19:16;588.90;2432.00
55365;DHT22;41245;45.384;20.390;2023-05-10T11:21:49;564.00;2432.00
55365;DHT22;41245;45.384;20.390;2023-05-10T11:24:17;564.00;2432.00
55365;DHT22;41245;45.384;20.390;2023-05-10T11:26:43;563.80;2432.00
55365;DHT22;41245;45.384;20.390;2023-05-10T11:29:09;564.00;2432.00
55365;DHT22;41245;45.384;20.390;2023-05-10T11:31:35;588.80;2432.00
55365;DHT22;41245;45.384;20.390;2023-05-10T11:34:07;588.90;2432.00
55365;DHT22;41245;45.384;20.390;2023-05-10T11:36:34;588.90;2432.00
55365;DHT22;41245;45.384;20.390;2023-05-10T11:39:00;588.90;2432.00
55365;DHT22;41245;45.384;20.390;2023-05-10T11:41:30;589.20;2432.00
55365;DHT22;41245;45.384;20.390;2023-05-10T11:43:57;589.50;2432.00
55365;DHT22;41245;45.384;20.390;2023-05-10T11:46:25;589.50;2432.00
55365;DHT22;41245;45.384;20.390;2023-05-10T11:48:59;589.40;2432.00
55365;DHT22;41245;45.384;20.390;2023-05-10T11:51:27;589.60;2432.00
55365;DHT22;41245;45.384;20.390;2023-05-10T11:53:54;589.60;2432.00
55365;DHT22;41245;45.384;20.390;2023-05-10T11:56:20;589.70;2432.00
55365;DHT22;41245;45.384;20.390;2023-05-10T11:58:55;589.40;2432.00
55365;DHT22;41245;45.384;20.390;2023-05-10T12:01:22;589.70;2432.00
55365;DHT22;41245;45.384;20.390;2023-05-10T12:03:49;614.50;2432.00
55365;DHT22;41245;45.384;20.390;2023-05-10T12:06:16;614.70;2432.00
55365;DHT22;41245;45.384;20.390;2023-05-10T12:08:46;614.70;2432.00
55365;DHT22;41245;45.384;20.390;2023-05-10T12:11:13;614.70;2432.00
55365;DHT22;41245;45.384;20.390;2023-05-10T12:13:43;614.90;2432.00
55365;DHT22;41245;45.384;20.390;2023-05-10T12:16:18;614.70;2432.00
55365;DHT22;41245;45.384;20.390;2023-05-10T12:18:45;614.70;2432.00
55365;DHT22;41245;45.384;20.390;2023-05-10T12:21:13;614.70;2432.00
55365;DHT22;41245;45.384;20.390;2023-05-10T12:23:40;614.80;2432.00
55365;DHT22;41245;45.384;20.390;2023-05-10T12:26:09;615.10;2432.00
55365;DHT22;41245;45.384;20.390;2023-05-10T12:28:35;614.80;2432.00
55365;DHT22;41245;45.384;20.390;2023-05-10T12:31:02;614.70;2432.00
55365;DHT22;41245;45.384;20.390;2023-05-10T12:33:35;614.70;2432.00
55365;DHT22;41245;45.384;20.390;2023-05-10T12:36:02;614.70;2432.00
55365;DHT22;41245;45.384;20.390;2023-05-10T12:38:34;614.70;2432.00
55365;DHT22;41245;45.384;20.390;2023-05-10T12:41:02;614.70;2432.00
55365;DHT22;41245;45.384;20.390;2023-05-10T12:43:28;614.60;2432.00
55365;DHT22;41245;45.384;20.390;2023-05-10T12:45:54;614.60;2432.00
55365;DHT22;41245;45.384;20.390;2023-05-10T12:48:20;614.50;2432.00
55365;DHT22;41245;45.384;20.390;2023-05-10T12:50:46;614.60;2432.00
55365;DHT22;41245;45.384;20.390;2023-05-10T12:53:14;614.60;2432.00
55365;DHT22;41245;45.384;20.390;2023-05-10T12:55:43;614.60;2432.00
55365;DHT22;41245;45.384;20.390;2023-05-10T12:58:09;589.70;2432.00
55365;DHT22;41245;45.384;20.390;2023-05-10T13:00:35;589.50;2432.00
55365;DHT22;41245;45.384;20.390;2023-05-10T13:03:06;614.60;2432.00
55365;DHT22;41245;45.384;20.390;2023-05-10T13:05:34;589.60;2432.00
55365;DHT22;41245;45.384;20.390;2023-05-10T13:08:00;589.20;2432.00
55365;DHT22;41245;45.384;20.390;2023-05-10T13:10:26;589.00;2432.00
55365;DHT22;41245;45.384;20.390;2023-05-10T13:12:52;589.20;2432.00
55365;DHT22;41245;45.384;20.390;2023-05-10T13:15:17;588.90;2432.00
55365;DHT22;41245;45.384;20.390;2023-05-10T13:17:43;588.90;2432.00
55365;DHT22;41245;45.384;20.390;2023-05-10T13:20:11;589.00;2432.00
55365;DHT22;41245;45.384;20.390;2023-05-10T13:22:36;589.00;2432.00
55365;DHT22;41245;45.384;20.390;2023-05-10T13:25:02;589.20;2432.00
55365;DHT22;41245;45.384;20.390;2023-05-10T13:27:28;589.30;2432.00
55365;DHT22;41245;45.384;20.390;2023-05-10T13:29:54;589.30;2432.00
55365;DHT22;41245;45.384;20.390;2023-05-10T13:32:20;589.60;2432.00
55365;DHT22;41245;45.384;20.390;2023-05-10T13:34:46;589.70;2432.00
55365;DHT22;41245;45.384;20.390;2023-05-10T13:37:12;589.70;2432.00
55365;DHT22;41245;45.384;20.390;2023-05-10T13:39:37;589.70;2432.00
55365;DHT22;41245;45.384;20.390;2023-05-10T13:42:04;589.40;2432.00
55365;DHT22;41245;45.384;20.390;2023-05-10T13:44:30;589.10;2432.00
55365;DHT22;41245;45.384;20.390;2023-05-10T13:46:56;589.10;2432.00
55365;DHT22;41245;45.384;20.390;2023-05-10T13:49:22;589.10;2432.00
55365;DHT22;41245;45.384;20.390;2023-05-10T13:51:48;589.30;2432.00
55365;DHT22;41245;45.384;20.390;2023-05-10T13:54:13;588.90;2432.00
55365;DHT22;41245;45.384;20.390;2023-05-10T13:56:41;564.00;2432.00
55365;DHT22;41245;45.384;20.390;2023-05-10T13:59:07;564.00;2432.00
55365;DHT22;41245;45.384;20.390;2023-05-10T14:01:33;564.10;2432.00
55365;DHT22;41245;45.384;20.390;2023-05-10T14:03:59;564.00;2432.00
55365;DHT22;41245;45.384;20.390;2023-05-10T14:06:25;563.50;2432.00
55365;DHT22;41245;45.384;20.390;2023-05-10T14:08:53;564.00;2432.00
55365;DHT22;41245;45.384;20.390;2023-05-10T14:11:19;563.90;2432.00
55365;DHT22;41245;45.384;20.390;2023-05-10T14:13:45;563.60;2432.00
55365;DHT22;41245;45.384;20.390;2023-05-10T14:16:11;563.20;2432.00
55365;DHT22;41245;45.384;20.390;2023-05-10T14:18:37;563.20;2432.00
55365;DHT22;41245;45.384;20.390;2023-05-10T14:21:03;563.40;2432.00
55365;DHT22;41245;45.384;20.390;2023-05-10T14:23:29;563.40;2432.00
55365;DHT22;41245;45.384;20.390;2023-05-10T14:25:55;563.50;2432.00
55365;DHT22;41245;45.384;20.390;2023-05-10T14:28:21;563.40;2432.00
55365;DHT22;41245;45.384;20.390;2023-05-10T14:30:48;563.20;2432.00
55365;DHT22;41245;45.384;20.390;2023-05-10T14:33:14;563.20;2432.00
55365;DHT22;41245;45.384;20.390;2023-05-10T14:35:39;563.20;2432.00
55365;DHT22;41245;45.384;20.390;2023-05-10T14:38:05;563.40;2432.00
55365;DHT22;41245;45.384;20.390;2023-05-10T14:40:31;563.40;2432.00
55365;DHT22;41245;45.384;20.390;2023-05-10T14:42:57;563.60;2432.00
55365;DHT22;41245;45.384;20.390;2023-05-10T14:45:23;563.60;2432.00
55365;DHT22;41245;45.384;20.390;2023-05-10T14:47:49;563.70;2432.00
55365;DHT22;41245;45.384;20.390;2023-05-10T14:50:15;563.90;2432.00
55365;DHT22;41245;45.384;20.390;2023-05-10T14:52:42;563.60;2432.00
55365;DHT22;41245;45.384;20.390;2023-05-10T14:55:09;563.70;2432.00
55365;DHT22;41245;45.384;20.390;2023-05-10T14:57:34;563.70;2432.00
55365;DHT22;41245;45.384;20.390;2023-05-10T15:00:00;563.40;2432.00
55365;DHT22;41245;45.384;20.390;2023-05-10T15:02:26;563.30;2432.00